Terminal Aerodrome Forecast
Issued by NWS Wilmington, OH

Current Version | Previous Version | Graphics & Text | Print | Product List | Glossary Off
Versions: 1 2 3 4 5 6 7 8 9 10 11 12 13 14 15 16 17 18 19 20 21 22

011
FTUS41 KILN 261722
TAFDAY
TAF
KDAY 261722Z 2618/2718 VRB05KT P6SM SCT040
     FM270000 30003KT P6SM SCT040 BKN150
     FM271500 27007KT P6SM SCT250=

USA.gov is the U.S. government's official web portal to all federal, state and local government web resources and services.